createdAt,value
2023-04-09T00:01:20.789Z,100.00
2023-04-09T00:03:48.947Z,100.00
2023-04-09T00:06:17.244Z,100.00
2023-04-09T00:08:45.302Z,100.00
2023-04-09T00:11:13.270Z,100.00
2023-04-09T00:13:41.364Z,100.00
2023-04-09T00:16:09.488Z,100.00
2023-04-09T00:18:37.522Z,100.00
2023-04-09T00:21:06.018Z,100.00
2023-04-09T00:23:34.833Z,100.00
2023-04-09T00:26:02.983Z,100.00
2023-04-09T00:28:31.431Z,100.00
2023-04-09T00:30:59.426Z,100.00
2023-04-09T00:33:27.436Z,100.00
2023-04-09T00:35:55.632Z,100.00
2023-04-09T00:38:23.747Z,100.00
2023-04-09T00:40:51.888Z,100.00
2023-04-09T00:43:20.052Z,100.00
2023-04-09T00:45:48.268Z,100.00
2023-04-09T00:48:17.507Z,100.00
2023-04-09T00:50:45.514Z,100.00
2023-04-09T00:53:15.063Z,100.00
2023-04-09T00:55:43.303Z,100.00
2023-04-09T00:58:11.684Z,100.00
2023-04-09T01:00:39.728Z,100.00
2023-04-09T01:03:08.630Z,100.00
2023-04-09T01:05:59.036Z,100.00
2023-04-09T01:08:39.188Z,100.00
2023-04-09T01:11:49.244Z,100.00
2023-04-09T01:14:45.345Z,100.00
2023-04-09T01:17:22.168Z,100.00
2023-04-09T01:20:10.493Z,100.00
2023-04-09T01:23:03.279Z,100.00
2023-04-09T01:25:52.878Z,100.00
2023-04-09T01:28:27.444Z,100.00
2023-04-09T01:31:13.592Z,100.00
2023-04-09T01:33:42.386Z,100.00
2023-04-09T01:36:11.575Z,100.00
2023-04-09T01:38:43.362Z,100.00
2023-04-09T01:41:17.367Z,100.00
2023-04-09T01:43:46.605Z,100.00
2023-04-09T01:46:16.389Z,100.00
2023-04-09T01:48:46.540Z,100.00
2023-04-09T01:51:14.614Z,100.00
2023-04-09T01:53:43.406Z,100.00
2023-04-09T01:56:11.488Z,100.00
2023-04-09T01:58:40.950Z,100.00
2023-04-09T02:01:34.239Z,100.00
2023-04-09T02:04:05.331Z,100.00
2023-04-09T02:06:42.546Z,100.00
2023-04-09T02:09:12.658Z,100.00
2023-04-09T02:11:42.498Z,100.00
2023-04-09T02:14:12.639Z,100.00
2023-04-09T02:16:41.626Z,100.00
2023-04-09T02:19:09.690Z,100.00
2023-04-09T02:21:37.704Z,100.00
2023-04-09T02:24:06.016Z,100.00
2023-04-09T02:26:34.164Z,100.00
2023-04-09T02:29:02.161Z,100.00
2023-04-09T02:31:30.341Z,100.00
2023-04-09T02:33:58.517Z,100.00
2023-04-09T02:36:27.800Z,100.00
2023-04-09T02:38:56.650Z,100.00
2023-04-09T02:41:24.867Z,100.00
2023-04-09T02:43:53.195Z,100.00
2023-04-09T02:46:21.228Z,100.00
2023-04-09T02:48:49.566Z,100.00
2023-04-09T02:51:17.761Z,100.00
2023-04-09T02:53:45.916Z,100.00
2023-04-09T02:56:13.960Z,100.00
2023-04-09T02:58:41.935Z,100.00
2023-04-09T03:01:09.981Z,100.00
2023-04-09T03:03:40.231Z,100.00
2023-04-09T03:06:08.258Z,100.00
2023-04-09T03:08:36.312Z,100.00
2023-04-09T03:11:04.378Z,100.00
2023-04-09T03:13:32.342Z,100.00
2023-04-09T03:16:00.592Z,100.00
2023-04-09T03:18:28.679Z,100.00
2023-04-09T03:20:56.766Z,100.00
2023-04-09T03:23:24.838Z,100.00
2023-04-09T03:26:06.570Z,100.00
2023-04-09T03:28:52.441Z,100.00
2023-04-09T03:31:20.879Z,100.00
2023-04-09T03:33:48.906Z,100.00
2023-04-09T03:36:19.932Z,100.00
2023-04-09T03:38:57.275Z,100.00
2023-04-09T03:41:43.487Z,100.00
2023-04-09T03:44:14.785Z,100.00
2023-04-09T03:46:55.895Z,100.00
2023-04-09T03:49:24.323Z,100.00
2023-04-09T03:51:53.371Z,100.00
2023-04-09T03:54:21.360Z,100.00
2023-04-09T03:56:49.940Z,100.00
2023-04-09T03:59:20.969Z,100.00
2023-04-09T04:01:49.362Z,100.00
2023-04-09T04:04:17.636Z,100.00
2023-04-09T04:06:50.948Z,100.00
2023-04-09T04:09:31.393Z,100.00
2023-04-09T04:12:04.349Z,100.00
2023-04-09T04:15:07.650Z,100.00
2023-04-09T04:17:45.657Z,100.00
2023-04-09T04:20:20.644Z,100.00
2023-04-09T04:22:55.369Z,100.00
2023-04-09T04:25:25.159Z,100.00
2023-04-09T04:27:55.020Z,100.00
2023-04-09T04:30:25.338Z,100.00
2023-04-09T04:32:59.346Z,100.00
2023-04-09T04:35:29.030Z,100.00
2023-04-09T04:37:59.020Z,100.00
2023-04-09T04:40:28.418Z,100.00
2023-04-09T04:43:00.195Z,100.00
2023-04-09T04:45:29.087Z,100.00
2023-04-09T04:48:03.542Z,100.00
2023-04-09T04:50:32.762Z,100.00
2023-04-09T04:53:07.330Z,100.00
2023-04-09T04:55:42.255Z,100.00
2023-04-09T04:58:12.872Z,100.00
2023-04-09T05:00:45.985Z,100.00
2023-04-09T05:03:15.392Z,100.00
2023-04-09T05:06:09.681Z,100.00
2023-04-09T05:08:43.035Z,100.00
2023-04-09T05:11:18.148Z,100.00
2023-04-09T05:13:48.293Z,100.00
2023-04-09T05:16:20.873Z,100.00
2023-04-09T05:19:00.531Z,100.00
2023-04-09T05:21:28.593Z,100.00
2023-04-09T05:23:57.717Z,100.00
2023-04-09T05:26:26.920Z,100.00
2023-04-09T05:28:58.135Z,100.00
2023-04-09T05:31:26.722Z,100.00
2023-04-09T05:34:01.853Z,100.00
2023-04-09T05:36:40.151Z,100.00
2023-04-09T05:39:08.289Z,100.00
2023-04-09T05:41:38.769Z,100.00
2023-04-09T05:44:33.192Z,100.00
2023-04-09T05:47:14.165Z,100.00
2023-04-09T05:49:46.713Z,100.00
2023-04-09T05:52:17.184Z,100.00
2023-04-09T05:54:45.341Z,100.00
2023-04-09T05:57:15.433Z,100.00
2023-04-09T05:59:45.385Z,100.00
2023-04-09T06:02:13.490Z,100.00
2023-04-09T06:04:42.008Z,100.00
2023-04-09T06:07:11.199Z,100.00
2023-04-09T06:09:39.200Z,100.00
2023-04-09T06:12:07.232Z,100.00
2023-04-09T06:14:35.165Z,100.00
2023-04-09T06:17:03.848Z,100.00
2023-04-09T06:19:31.809Z,100.00
2023-04-09T06:22:02.327Z,100.00
2023-04-09T06:24:33.981Z,100.00
2023-04-09T06:27:02.277Z,100.00
2023-04-09T06:29:30.269Z,100.00
2023-04-09T06:31:58.221Z,100.00
2023-04-09T06:34:26.207Z,100.00
2023-04-09T06:36:54.226Z,100.00
2023-04-09T06:39:22.303Z,100.00
2023-04-09T06:41:50.624Z,100.00
2023-04-09T06:44:36.073Z,100.00
2023-04-09T06:47:04.030Z,100.00
2023-04-09T06:49:32.026Z,100.00
2023-04-09T06:52:00.085Z,100.00
2023-04-09T06:54:28.162Z,100.00
2023-04-09T06:56:56.842Z,99.83
2023-04-09T06:59:25.015Z,100.00
2023-04-09T07:01:54.548Z,99.89
2023-04-09T07:04:22.910Z,99.50
2023-04-09T07:06:52.772Z,99.95
2023-04-09T07:09:20.949Z,100.00
2023-04-09T07:11:49.572Z,99.74
2023-04-09T07:14:17.776Z,99.15
2023-04-09T07:16:46.686Z,98.64
2023-04-09T07:19:14.742Z,99.11
2023-04-09T07:21:44.804Z,99.38
2023-04-09T07:24:12.834Z,99.22
2023-04-09T07:26:41.583Z,98.30
2023-04-09T07:29:09.534Z,95.65
2023-04-09T07:31:37.781Z,95.65
2023-04-09T07:34:06.244Z,95.37
2023-04-09T07:36:36.092Z,95.57
2023-04-09T07:39:04.300Z,93.77
2023-04-09T07:41:34.384Z,93.06
2023-04-09T07:44:06.392Z,93.88
2023-04-09T07:46:35.932Z,94.94
2023-04-09T07:49:03.974Z,92.38
2023-04-09T07:51:32.371Z,91.68
2023-04-09T07:54:01.717Z,92.33
2023-04-09T07:56:29.724Z,92.43
2023-04-09T07:58:58.096Z,93.41
2023-04-09T08:01:26.732Z,94.01
2023-04-09T08:03:59.936Z,93.78
2023-04-09T08:06:29.831Z,93.85
2023-04-09T08:08:57.907Z,93.22
2023-04-09T08:11:28.136Z,92.11
2023-04-09T08:13:57.306Z,89.99
2023-04-09T08:16:25.425Z,88.58
2023-04-09T08:18:54.655Z,86.22
2023-04-09T08:21:36.865Z,85.22
2023-04-09T08:24:20.648Z,84.35
2023-04-09T08:26:48.854Z,83.60
2023-04-09T08:29:16.925Z,82.54
2023-04-09T08:31:45.028Z,82.83
2023-04-09T08:34:15.259Z,82.78
2023-04-09T08:36:46.574Z,83.29
2023-04-09T08:39:16.720Z,82.95
2023-04-09T08:41:47.775Z,81.69
2023-04-09T08:44:16.761Z,82.03
2023-04-09T08:46:44.918Z,82.09
2023-04-09T08:49:13.000Z,80.91
2023-04-09T08:51:46.423Z,80.81
2023-04-09T08:54:20.234Z,79.71
2023-04-09T08:56:48.625Z,79.86
2023-04-09T08:59:19.862Z,75.75
2023-04-09T09:01:54.559Z,71.31
2023-04-09T09:04:23.132Z,70.95
2023-04-09T09:06:51.483Z,71.45
2023-04-09T09:09:19.768Z,70.05
2023-04-09T09:11:51.187Z,68.60
2023-04-09T09:14:19.900Z,68.54
2023-04-09T09:16:57.916Z,68.64
2023-04-09T09:19:26.662Z,67.06
2023-04-09T09:21:59.862Z,67.72
2023-04-09T09:24:28.253Z,68.00
2023-04-09T09:26:58.972Z,67.51
2023-04-09T09:29:28.281Z,66.69
2023-04-09T09:31:56.744Z,66.49
2023-04-09T09:34:25.757Z,65.91
2023-04-09T09:36:54.044Z,65.77
2023-04-09T09:39:22.410Z,67.43
2023-04-09T09:42:08.291Z,67.50
2023-04-09T09:44:38.308Z,67.59
2023-04-09T09:47:07.366Z,67.91
2023-04-09T09:49:36.763Z,68.22
2023-04-09T09:52:09.967Z,68.08
2023-04-09T09:54:42.860Z,67.50
2023-04-09T09:58:06.335Z,66.52
2023-04-09T10:00:40.236Z,66.08
2023-04-09T10:03:22.432Z,66.50
2023-04-09T10:08:54.749Z,65.68
2023-04-09T10:11:25.843Z,67.42
2023-04-09T10:14:01.564Z,68.16
2023-04-09T10:16:42.174Z,67.04
2023-04-09T10:19:42.225Z,64.76
2023-04-09T10:22:20.920Z,65.96
2023-04-09T10:25:16.177Z,67.84
2023-04-09T10:27:49.350Z,67.88
2023-04-09T10:30:36.949Z,70.07
2023-04-09T10:33:16.082Z,71.17
2023-04-09T10:35:58.572Z,72.03
2023-04-09T10:38:41.644Z,72.89
2023-04-09T10:41:22.574Z,72.52
2023-04-09T10:43:51.134Z,71.09
2023-04-09T10:46:37.786Z,71.15
2023-04-09T10:49:15.296Z,72.02
2023-04-09T10:52:12.803Z,71.19
2023-04-09T10:54:44.107Z,71.25
2023-04-09T10:57:19.891Z,71.73
2023-04-09T10:59:57.434Z,70.59
2023-04-09T11:02:39.297Z,68.78
2023-04-09T11:05:32.639Z,67.66
2023-04-09T11:08:04.432Z,69.55
2023-04-09T11:11:08.450Z,69.09
2023-04-09T11:13:44.235Z,68.17
2023-04-09T11:16:24.066Z,67.31
2023-04-09T11:18:59.569Z,67.34
2023-04-09T11:21:31.940Z,68.25
2023-04-09T11:23:59.975Z,69.12
2023-04-09T11:26:36.516Z,69.40
2023-04-09T11:29:59.682Z,69.99
2023-04-09T11:32:31.589Z,69.24
2023-04-09T11:34:59.702Z,69.40
2023-04-09T11:37:28.036Z,68.91
2023-04-09T11:40:10.150Z,69.54
2023-04-09T11:42:41.143Z,69.58
2023-04-09T11:45:18.839Z,68.01
2023-04-09T11:47:49.900Z,68.34
2023-04-09T11:50:26.268Z,69.57
2023-04-09T11:53:26.782Z,69.23
2023-04-09T11:56:35.378Z,69.18
2023-04-09T11:59:15.453Z,71.19
2023-04-09T12:01:50.008Z,70.05
2023-04-09T12:04:22.028Z,70.25
2023-04-09T12:06:50.508Z,69.48
2023-04-09T12:09:21.292Z,69.70
2023-04-09T12:11:49.521Z,69.18
2023-04-09T12:14:22.480Z,68.39
2023-04-09T12:16:56.675Z,67.68
2023-04-09T12:19:29.339Z,67.93
2023-04-09T12:21:58.585Z,68.58
2023-04-09T12:24:28.736Z,68.91
2023-04-09T12:27:13.859Z,66.93
2023-04-09T12:29:42.027Z,68.59
2023-04-09T12:32:14.653Z,69.62
2023-04-09T12:34:57.302Z,68.63
2023-04-09T12:37:25.565Z,68.02
2023-04-09T12:39:56.833Z,68.08
2023-04-09T12:42:57.742Z,68.56
2023-04-09T12:46:28.421Z,68.26
2023-04-09T12:49:07.471Z,68.31
2023-04-09T12:55:07.811Z,66.60
2023-04-09T12:57:37.695Z,66.59
2023-04-09T13:00:31.341Z,67.01
2023-04-09T13:03:00.025Z,66.48
2023-04-09T13:05:28.953Z,65.72
2023-04-09T13:08:04.875Z,65.76
2023-04-09T13:10:33.394Z,65.19
2023-04-09T13:13:01.496Z,65.74
2023-04-09T13:18:47.379Z,65.24
2023-04-09T13:21:18.823Z,64.85
2023-04-09T13:23:54.529Z,63.59
2023-04-09T13:26:22.595Z,63.82
2023-04-09T13:29:08.176Z,64.03
2023-04-09T13:31:36.972Z,63.54
2023-04-09T13:34:06.552Z,64.68
2023-04-09T13:37:07.025Z,64.87
2023-04-09T13:39:35.370Z,63.31
2023-04-09T13:42:12.776Z,63.53
2023-04-09T13:44:45.997Z,63.52
2023-04-09T13:47:16.076Z,63.54
2023-04-09T13:52:38.782Z,63.79
2023-04-09T13:55:36.975Z,64.36
2023-04-09T13:58:09.144Z,64.00
2023-04-09T14:01:34.348Z,63.05
2023-04-09T14:03:44.959Z,62.43
2023-04-09T14:06:15.924Z,62.63
2023-04-09T14:08:46.650Z,61.69
2023-04-09T14:11:16.745Z,60.82
2023-04-09T14:13:49.978Z,61.32
2023-04-09T14:16:21.112Z,61.75
2023-04-09T14:18:49.756Z,61.92
2023-04-09T14:21:18.521Z,61.37
2023-04-09T14:24:26.371Z,60.94
2023-04-09T14:26:54.536Z,61.54
2023-04-09T14:29:22.755Z,61.84
2023-04-09T14:31:51.873Z,59.88
2023-04-09T14:34:23.737Z,60.03
2023-04-09T14:36:59.069Z,59.70
2023-04-09T14:39:28.829Z,58.85
2023-04-09T14:41:59.926Z,59.64
2023-04-09T15:11:47.247Z,62.35
2023-04-09T15:14:15.972Z,62.70
2023-04-09T15:16:44.409Z,61.38
2023-04-09T15:19:14.435Z,61.06
2023-04-09T15:24:47.755Z,61.80
2023-04-09T15:27:23.580Z,61.14
2023-04-09T15:29:55.339Z,61.25
2023-04-09T15:32:26.018Z,60.78
2023-04-09T15:38:40.796Z,62.13
2023-04-09T15:41:45.607Z,61.81
2023-04-09T15:44:39.580Z,62.09
2023-04-09T15:47:15.926Z,62.77
2023-04-09T15:49:48.313Z,62.84
2023-04-09T15:52:36.770Z,61.79
2023-04-09T15:55:08.008Z,61.12
2023-04-09T15:57:39.376Z,61.78
2023-04-09T16:00:10.976Z,61.84
2023-04-09T16:02:40.956Z,62.48
2023-04-09T16:05:09.522Z,63.08
2023-04-09T16:07:41.000Z,62.76
2023-04-09T16:10:12.094Z,62.88
2023-04-09T16:12:54.833Z,63.30
2023-04-09T16:15:26.272Z,63.97
2023-04-09T16:17:54.801Z,64.42
2023-04-09T16:20:44.066Z,64.68
2023-04-09T16:23:12.294Z,64.78
2023-04-09T16:25:40.366Z,65.28
2023-04-09T16:28:11.141Z,65.40
2023-04-09T16:30:57.129Z,65.62
2023-04-09T16:33:26.006Z,66.39
2023-04-09T16:35:54.336Z,66.73
2023-04-09T16:38:52.295Z,67.24
2023-04-09T16:41:53.172Z,67.82
2023-04-09T16:44:21.693Z,68.62
2023-04-09T16:46:53.057Z,69.64
2023-04-09T16:49:21.120Z,70.49
2023-04-09T16:52:01.780Z,71.10
2023-04-09T16:54:32.116Z,71.55
2023-04-09T16:57:18.778Z,71.63
2023-04-09T17:00:31.425Z,72.00
2023-04-09T17:04:23.664Z,72.20
2023-04-09T17:06:18.171Z,72.62
2023-04-09T17:12:48.965Z,73.28
2023-04-09T17:15:18.837Z,73.65
2023-04-09T17:17:51.841Z,73.83
2023-04-09T17:20:49.271Z,74.42
2023-04-09T17:23:55.991Z,74.78
2023-04-09T17:26:56.078Z,74.22
2023-04-09T17:29:34.593Z,74.46
2023-04-09T17:32:08.522Z,74.91
2023-04-09T17:35:54.695Z,75.28
2023-04-09T17:41:50.478Z,77.22
2023-04-09T17:44:46.805Z,78.63
2023-04-09T17:50:22.364Z,80.44
2023-04-09T17:53:31.173Z,80.81
2023-04-09T18:00:05.383Z,79.62
2023-04-09T18:05:25.726Z,84.07
2023-04-09T18:07:41.314Z,85.62
2023-04-09T18:13:25.709Z,86.81
2023-04-09T18:13:39.031Z,88.15
2023-04-09T18:16:34.123Z,89.02
2023-04-09T18:29:11.180Z,91.95
2023-04-09T18:31:39.847Z,92.52
2023-04-09T18:34:08.412Z,92.70
2023-04-09T18:36:36.686Z,92.92
2023-04-09T18:39:05.123Z,92.98
2023-04-09T18:41:38.181Z,93.14
2023-04-09T18:44:10.506Z,94.15
2023-04-09T18:46:54.461Z,94.35
2023-04-09T18:49:24.312Z,94.79
2023-04-09T18:52:15.957Z,95.18
2023-04-09T18:54:44.372Z,95.11
2023-04-09T18:57:17.570Z,95.49
2023-04-09T19:03:28.696Z,96.02
2023-04-09T19:06:12.937Z,95.95
2023-04-09T19:09:00.615Z,95.86
2023-04-09T19:11:29.067Z,95.39
2023-04-09T19:13:57.242Z,95.71
2023-04-09T19:16:28.369Z,95.88
2023-04-09T19:18:56.831Z,96.01
2023-04-09T19:21:26.641Z,95.98
2023-04-09T19:23:56.771Z,96.35
2023-04-09T19:26:25.249Z,96.60
2023-04-09T19:28:53.767Z,96.69
2023-04-09T19:31:23.885Z,96.95
2023-04-09T19:33:52.449Z,97.28
2023-04-09T19:36:20.844Z,97.43
2023-04-09T19:38:58.518Z,97.54
2023-04-09T19:41:26.560Z,97.08
2023-04-09T19:43:54.772Z,97.33
2023-04-09T19:46:32.804Z,98.10
2023-04-09T19:49:01.083Z,97.88
2023-04-09T19:51:29.173Z,98.15
2023-04-09T19:53:57.136Z,98.75
2023-04-09T19:56:35.749Z,98.56
2023-04-09T19:59:05.913Z,98.16
2023-04-09T20:01:37.457Z,98.10
2023-04-09T20:04:05.832Z,98.71
2023-04-09T20:06:35.628Z,99.11
2023-04-09T20:09:05.757Z,99.36
2023-04-09T20:11:34.446Z,99.31
2023-04-09T20:14:03.130Z,99.68
2023-04-09T20:16:31.469Z,99.74
2023-04-09T20:19:01.779Z,99.81
2023-04-09T20:21:32.834Z,99.59
2023-04-09T20:24:05.194Z,99.29
2023-04-09T20:26:33.325Z,99.53
2023-04-09T20:29:02.071Z,99.93
2023-04-09T20:31:31.120Z,100.00
2023-04-09T20:33:59.724Z,100.00
2023-04-09T20:36:27.918Z,100.00
2023-04-09T20:38:58.099Z,100.00
2023-04-09T20:41:26.364Z,100.00
2023-04-09T20:43:59.365Z,100.00
2023-04-09T20:46:29.345Z,100.00
2023-04-09T20:48:57.420Z,100.00
2023-04-09T20:51:27.255Z,100.00
2023-04-09T20:53:55.332Z,100.00
2023-04-09T20:56:26.325Z,100.00
2023-04-09T20:58:54.733Z,100.00
2023-04-09T21:01:23.803Z,100.00
2023-04-09T21:03:52.265Z,100.00
2023-04-09T21:06:21.026Z,100.00
2023-04-09T21:08:49.579Z,100.00
2023-04-09T21:12:00.277Z,100.00
2023-04-09T21:14:45.146Z,100.00
2023-04-09T21:17:13.386Z,100.00
2023-04-09T21:19:41.568Z,100.00
2023-04-09T21:22:12.266Z,100.00
2023-04-09T21:24:58.088Z,100.00
2023-04-09T21:27:26.329Z,100.00
2023-04-09T21:29:57.140Z,100.00
2023-04-09T21:32:25.753Z,100.00
2023-04-09T21:34:55.100Z,100.00
2023-04-09T21:37:23.331Z,100.00
2023-04-09T21:39:51.274Z,100.00
2023-04-09T21:42:19.279Z,100.00
2023-04-09T21:44:49.886Z,100.00
2023-04-09T21:47:24.150Z,100.00
2023-04-09T21:49:54.020Z,100.00
2023-04-09T21:52:22.704Z,100.00
2023-04-09T21:54:51.082Z,100.00
2023-04-09T21:57:19.099Z,100.00
2023-04-09T21:59:47.216Z,100.00
2023-04-09T22:02:17.505Z,100.00
2023-04-09T22:04:45.848Z,100.00
2023-04-09T22:07:13.805Z,100.00
2023-04-09T22:09:41.888Z,100.00
2023-04-09T22:12:10.018Z,100.00
2023-04-09T22:14:38.581Z,100.00
2023-04-09T22:17:08.960Z,100.00
2023-04-09T22:19:36.971Z,100.00
2023-04-09T22:22:05.068Z,100.00
2023-04-09T22:24:33.944Z,100.00
2023-04-09T22:27:02.299Z,100.00
2023-04-09T22:29:30.684Z,100.00
2023-04-09T22:31:58.571Z,100.00
2023-04-09T22:34:26.631Z,100.00
2023-04-09T22:36:54.947Z,100.00
2023-04-09T22:39:22.976Z,100.00
2023-04-09T22:41:51.008Z,100.00
2023-04-09T22:44:19.207Z,100.00
2023-04-09T22:46:47.474Z,100.00
2023-04-09T22:49:15.989Z,100.00
2023-04-09T22:51:44.052Z,100.00
2023-04-09T22:54:12.217Z,100.00
2023-04-09T22:56:40.496Z,100.00
2023-04-09T22:59:08.500Z,100.00
2023-04-09T23:01:36.890Z,100.00
2023-04-09T23:04:04.936Z,100.00
2023-04-09T23:06:32.971Z,100.00
2023-04-09T23:09:00.962Z,100.00
2023-04-09T23:11:29.197Z,100.00
2023-04-09T23:13:59.608Z,100.00
2023-04-09T23:16:27.986Z,100.00
2023-04-09T23:18:56.099Z,100.00
2023-04-09T23:21:24.362Z,100.00
2023-04-09T23:23:52.523Z,100.00
2023-04-09T23:26:20.829Z,100.00
2023-04-09T23:28:48.741Z,100.00
2023-04-09T23:31:16.968Z,100.00
2023-04-09T23:33:45.666Z,100.00
2023-04-09T23:36:13.982Z,100.00
2023-04-09T23:38:43.858Z,100.00
2023-04-09T23:41:11.988Z,100.00
2023-04-09T23:43:41.436Z,100.00
2023-04-09T23:46:09.550Z,100.00
2023-04-09T23:48:37.655Z,100.00
2023-04-09T23:51:06.036Z,100.00
2023-04-09T23:53:34.244Z,100.00
2023-04-09T23:56:02.421Z,100.00
2023-04-09T23:58:30.582Z,100.00
